Port Dufferin, Canada
Current Conditions -  °F | °C
As of 4:00 PM on Sunday 21 Dec 2014 (Local Time) from CYHZ Reporting Station
Overcast Overcast  
Wind Chill: 24°   Ceiling: 1900
Heat Index: 30°   Visibility: 15mi
Dew Point: 25°   Wind: 6mph
Humidity: 80%   Direction: 30°NNE
Pressure: 30.33"   Gusts: NA
Location:  44.92°N, 62.38°W
Report Text: CYHZ 212000Z 03005KT 15SM OVC019 M01/M04 A3033 RMK SC8 SLP277
Loading
Personal Weather Stations






























Interactive Weather Map New forecast layout! Learn more

10-Day Weather Forecast

Advertisements
Track Severe Weather on mobile